Terminal Aerodrome Forecast
Issued by NWS

Home | Current Version | Previous Version | Text Only | Print | Product List | Glossary On
Versions: 1 2 3 4 5 6 7 8 9 10 11 12 13 14 15
000
FTUS42 KTBW 220500
TAFRSW
TAF
KRSW 220530Z 2206/2306 00000KT P6SM FEW020 BKN090 BKN250
     FM221100 00000KT P6SM VCSH SCT025 BKN090 BKN250
     FM221500 VRB03KT P6SM VCSH SCT025 BKN090
     FM221800 26007KT P6SM VCTS SCT035CB BKN090
     FM230200 03004KT P6SM SCT050 BKN100=

USA.gov is the U.S. government's official web portal to all federal, state and local government web resources and services.